Washington, DC (20306)

9:08 AM EDT on March 31, 2015 (GMT -0400)
Takoma, DC | | Change Station
CLOSE
Current Station
Personal Weather Station
Location: Washington, DC
Elevation: 279 ft
Nearby Weather Stations

Elev 279 ft 38.97 °N, 77.01 °W | Updated 55 seconds ago

Clear
Clear
50.8 °F
Feels Like 50.8 °F
N
0.0
Wind Variable Wind from East
Gusts 1.0 mph

Today
High -- | Low -- °F
--% Chance of Precip.
Yesterday
High -- | Low -- °F
Precip. -- in
6:54 AM 7:30 PM
Waxing Gibbous, 86% visible
Pressure 29.93 in
Visibility 10.0 miles
Clouds Clear
Dew Point 30 °F
Humidity 45%
Rainfall 0.00 in
Snow Depth Not available.
UV 2 out of 12
Pollen 9.50 out of 12
Air Quality Not available.
Flu Activity Not available.
METAR KCGS 311255Z AUTO 00000KT 10SM CLR 10/M02 A2993 RMK AO1

More Conditions Fewer Conditions

Pressure 29.93 in
Visibility 10.0 miles
Clouds Clear
Dew Point 30 °F
Humidity 45%
Rainfall 0.00 in
Snow Depth Not available.
UV 2 out of 12
Pollen 9.50 out of 12
Air Quality Not available.
Flu Activity Not available.
METAR KCGS 311255Z AUTO 00000KT 10SM CLR 10/M02 A2993 RMK AO1

More Conditions Fewer Conditions

10-Day Weather Forecast

Almanac

Astronomy

Mar. 31, 2015 Rise Set
Actual Time
Civil Twilight
Nautical Twilight
Astronomical Twilight
Moon
Length of Visible Light
Length of Day
Tomorrow will be .
, % of the Moon is Illuminated

Today's Extremes

State Highs State Lows

Community

WunderPhotos

Upload Photos

1,809,757 photos uploaded!

WunderBlogs® & News

Nearby

Air Quality

  Air Quality AQ Index Pollutant
Not available.

Snow Depth

Station Depth Elevation

Earthquake Activity

City Distance Mag. Time & Date
Minimum magnitude displayed is 2.5.

Coastal Water Temperatures

Place Temperature

Stations

Nearby Weather Stations

Station Location Temp. Windchill Dew Point Humidity Wind Precip. Elev Updated Type